LOWW/VIE METAR and TAF weather

Enter ICAO airport designator
Station Type Date Time Source
LOWW METAR 2019/06/17 14:50 UTC NOAA

LOWW 171450Z 36009KT 9999 FEW045 FEW045TCU BKN280 25/15 Q1018 NOSIG


Station Type Date Time Source
LOWW Decoded METAR 2019/06/17 14:50 UTC NOAA

Wien / Schwechat-Flughafen, Austria (LOWW) 48-07N 016-34E 190M
Jun 17, 2019 - 10:50 AM EDT / 2019.06.17 1450 UTC
Wind: from the N (360 degrees) at 10 MPH (9 KT):0
Visibility: greater than 7 mile(s):0
Sky conditions: mostly cloudy
Weather: Towering cumulus clouds observed
Temperature: 77 F (25 C)
Dew Point: 59 F (15 C)
Relative Humidity: 53%
Pressure (altimeter): 30.06 in. Hg (1018 hPa)
ob: LOWW 171450Z 36009KT 9999 FEW045 FEW045TCU BKN280 25/15 Q1018 NOSIG
cycle: 15

Station Type Date Time Source
LOWW TAF 2019/06/17 15:20 UTC NOAA

TAF LOWW 171415Z 1715/1821 01010KT 9999 FEW045 BKN250 TX28/1815Z TN17/1803Z
TEMPO 1715/1717 FEW060CB
BECMG 1718/1721 33005KT CAVOK
FM180900 10006KT 9999 FEW045
FM181500 14007KT CAVOK

Example: see airport list